createdAt,value
2022-12-07T00:01:23.824Z,2.79
2022-12-07T00:03:52.521Z,2.77
2022-12-07T00:06:20.545Z,2.71
2022-12-07T00:08:48.455Z,2.63
2022-12-07T00:11:18.570Z,2.57
2022-12-07T00:13:45.928Z,2.54
2022-12-07T00:16:18.751Z,2.35
2022-12-07T00:18:46.676Z,2.28
2022-12-07T00:21:16.197Z,2.38
2022-12-07T00:23:44.406Z,2.39
2022-12-07T00:26:17.618Z,2.34
2022-12-07T00:28:48.951Z,2.15
2022-12-07T00:31:17.338Z,2.18
2022-12-07T00:33:44.901Z,2.17
2022-12-07T00:36:14.670Z,2.22
2022-12-07T00:38:42.193Z,2.26
2022-12-07T00:41:15.249Z,2.32
2022-12-07T00:43:43.652Z,2.38
2022-12-07T00:46:11.426Z,2.42
2022-12-07T00:48:39.062Z,2.40
2022-12-07T00:51:07.115Z,2.40
2022-12-07T00:53:41.276Z,2.33
2022-12-07T00:56:29.475Z,2.32
2022-12-07T00:59:01.339Z,2.33
2022-12-07T01:01:32.309Z,2.24
2022-12-07T01:04:02.127Z,2.29
2022-12-07T01:06:29.818Z,2.20
2022-12-07T01:08:57.190Z,2.13
2022-12-07T01:11:27.187Z,2.03
2022-12-07T01:13:55.572Z,1.97
2022-12-07T01:16:24.250Z,1.97
2022-12-07T01:18:53.550Z,1.93
2022-12-07T01:21:26.372Z,1.96
2022-12-07T01:23:54.061Z,1.92
2022-12-07T01:26:23.227Z,1.88
2022-12-07T01:28:51.073Z,1.79
2022-12-07T01:31:24.305Z,1.84
2022-12-07T01:33:54.070Z,1.86
2022-12-07T01:36:22.263Z,1.84
2022-12-07T01:38:54.162Z,1.83
2022-12-07T01:41:22.415Z,1.77
2022-12-07T01:44:14.196Z,1.80
2022-12-07T01:46:42.534Z,1.80
2022-12-07T01:49:13.829Z,1.75
2022-12-07T01:51:42.352Z,1.73
2022-12-07T01:54:10.824Z,1.81
2022-12-07T01:56:38.743Z,1.86
2022-12-07T01:59:05.908Z,1.79
2022-12-07T02:01:34.119Z,1.76
2022-12-07T02:04:01.435Z,1.73
2022-12-07T02:06:28.776Z,1.74
2022-12-07T02:08:55.971Z,1.77
2022-12-07T02:11:23.624Z,1.73
2022-12-07T02:13:51.153Z,1.72
2022-12-07T02:16:36.995Z,1.72
2022-12-07T02:19:37.138Z,1.71
2022-12-07T02:22:40.712Z,1.68
2022-12-07T02:25:12.375Z,1.66
2022-12-07T02:27:48.317Z,1.63
2022-12-07T02:30:20.977Z,1.59
2022-12-07T02:33:17.052Z,1.60
2022-12-07T02:35:52.270Z,1.63
2022-12-07T02:38:21.545Z,1.67
2022-12-07T02:41:05.863Z,1.63
2022-12-07T02:43:39.468Z,1.69
2022-12-07T02:46:09.841Z,1.70
2022-12-07T02:48:37.962Z,1.69
2022-12-07T02:51:05.250Z,1.70
2022-12-07T02:53:52.713Z,1.72
2022-12-07T02:56:47.171Z,1.66
2022-12-07T02:59:51.551Z,1.61
2022-12-07T03:02:33.620Z,1.61
2022-12-07T03:05:14.221Z,1.60
2022-12-07T03:08:07.255Z,1.63
2022-12-07T03:10:55.920Z,1.59
2022-12-07T03:13:42.160Z,1.59
2022-12-07T03:16:28.921Z,1.65
2022-12-07T03:19:09.120Z,1.69
2022-12-07T03:21:42.079Z,1.70
2022-12-07T03:24:15.679Z,1.76
2022-12-07T03:26:49.601Z,1.76
2022-12-07T03:29:28.962Z,1.90
2022-12-07T03:31:58.227Z,1.84
2022-12-07T03:34:28.658Z,1.82
2022-12-07T03:37:01.262Z,1.93
2022-12-07T03:39:40.970Z,1.94
2022-12-07T03:42:10.090Z,1.90
2022-12-07T03:44:38.125Z,2.04
2022-12-07T03:47:14.429Z,2.06
2022-12-07T03:50:07.998Z,2.14
2022-12-07T03:52:46.137Z,2.00
2022-12-07T03:55:29.371Z,1.88
2022-12-07T03:58:05.570Z,1.85
2022-12-07T04:00:33.323Z,1.88
2022-12-07T04:03:00.662Z,1.94
2022-12-07T04:05:28.079Z,1.90
2022-12-07T04:07:55.436Z,1.91
2022-12-07T04:10:22.763Z,1.88
2022-12-07T04:12:52.534Z,1.88
2022-12-07T04:15:19.972Z,1.93
2022-12-07T04:17:47.185Z,1.99
2022-12-07T04:20:14.624Z,1.92
2022-12-07T04:22:41.882Z,2.01
2022-12-07T04:25:09.405Z,2.03
2022-12-07T04:27:36.607Z,2.07
2022-12-07T04:30:04.771Z,2.07
2022-12-07T04:32:32.320Z,2.06
2022-12-07T04:34:59.616Z,2.06
2022-12-07T04:37:26.851Z,2.09
2022-12-07T04:39:54.390Z,2.18
2022-12-07T04:42:21.689Z,2.10
2022-12-07T04:44:49.175Z,2.10
2022-12-07T04:47:16.521Z,2.10
2022-12-07T04:49:43.824Z,2.16
2022-12-07T04:52:11.540Z,2.21
2022-12-07T04:54:38.777Z,2.19
2022-12-07T04:57:06.071Z,2.19
2022-12-07T04:59:33.360Z,2.24
2022-12-07T05:02:00.752Z,2.25
2022-12-07T05:04:28.238Z,2.22
2022-12-07T05:06:55.613Z,2.26
2022-12-07T05:09:22.956Z,2.20
2022-12-07T05:11:50.143Z,2.26
2022-12-07T05:14:21.650Z,2.25
2022-12-07T05:16:51.508Z,2.19
2022-12-07T05:19:19.872Z,2.20
2022-12-07T05:21:47.701Z,2.27
2022-12-07T05:24:15.882Z,2.36
2022-12-07T05:26:43.521Z,2.40
2022-12-07T05:29:13.815Z,2.42
2022-12-07T05:31:41.277Z,2.41
2022-12-07T05:34:08.682Z,2.46
2022-12-07T05:36:36.188Z,2.54
2022-12-07T05:39:03.556Z,2.46
2022-12-07T05:41:49.588Z,2.50
2022-12-07T05:44:16.918Z,2.52
2022-12-07T05:46:46.197Z,2.49
2022-12-07T05:49:13.464Z,2.56
2022-12-07T05:51:40.709Z,2.58
2022-12-07T05:54:08.018Z,2.66
2022-12-07T05:56:35.389Z,2.66
2022-12-07T05:59:21.482Z,2.69
2022-12-07T06:01:49.112Z,2.72
2022-12-07T06:04:16.690Z,2.68
2022-12-07T06:06:44.166Z,2.63
2022-12-07T06:09:11.508Z,2.70
2022-12-07T06:11:57.221Z,2.79
2022-12-07T06:14:24.482Z,2.71
2022-12-07T06:16:51.931Z,2.79
2022-12-07T06:19:19.216Z,2.75
2022-12-07T06:21:46.761Z,2.77
2022-12-07T06:24:15.289Z,2.74
2022-12-07T06:26:42.885Z,2.75
2022-12-07T06:29:10.653Z,2.81
2022-12-07T06:31:38.498Z,2.82
2022-12-07T06:34:09.751Z,2.85
2022-12-07T06:36:37.040Z,2.90
2022-12-07T06:39:05.033Z,2.86
2022-12-07T06:41:32.415Z,2.86
2022-12-07T06:44:02.521Z,2.92
2022-12-07T06:46:29.864Z,2.88
2022-12-07T06:48:57.284Z,2.92
2022-12-07T06:51:24.602Z,2.96
2022-12-07T06:53:51.759Z,2.96
2022-12-07T06:56:19.052Z,3.02
2022-12-07T06:58:46.443Z,2.96
2022-12-07T07:01:15.679Z,2.97
2022-12-07T07:03:44.296Z,2.96
2022-12-07T07:06:11.678Z,2.98
2022-12-07T07:08:39.898Z,3.07
2022-12-07T07:11:08.025Z,3.04
2022-12-07T07:13:35.920Z,3.00
2022-12-07T07:16:03.915Z,2.98
2022-12-07T07:18:31.260Z,2.94
2022-12-07T07:20:59.353Z,3.00
2022-12-07T07:23:26.681Z,3.07
2022-12-07T07:25:53.996Z,3.07
2022-12-07T07:28:21.317Z,3.10
2022-12-07T07:30:48.818Z,3.14
2022-12-07T07:33:16.255Z,3.15
2022-12-07T07:35:43.726Z,3.17
2022-12-07T07:38:11.011Z,3.10
2022-12-07T07:40:38.283Z,3.20
2022-12-07T07:43:05.549Z,3.19
2022-12-07T07:45:32.978Z,3.23
2022-12-07T07:48:00.177Z,3.13
2022-12-07T07:50:27.676Z,3.13
2022-12-07T07:52:54.914Z,3.19
2022-12-07T07:55:22.155Z,3.22
2022-12-07T07:57:54.453Z,3.15
2022-12-07T08:00:22.673Z,3.20
2022-12-07T08:02:50.050Z,3.22
2022-12-07T08:05:17.638Z,3.26
2022-12-07T08:07:45.254Z,3.26
2022-12-07T08:10:13.829Z,3.29
2022-12-07T08:13:02.475Z,3.35
2022-12-07T08:15:30.954Z,3.26
2022-12-07T08:18:01.158Z,3.24
2022-12-07T08:20:30.383Z,3.28
2022-12-07T08:22:57.943Z,3.29
2022-12-07T08:25:25.380Z,3.32
2022-12-07T08:27:53.339Z,3.30
2022-12-07T08:30:21.206Z,3.34
2022-12-07T08:32:48.940Z,3.38
2022-12-07T08:35:16.649Z,3.47
2022-12-07T08:37:44.240Z,3.53
2022-12-07T08:40:16.077Z,3.60
2022-12-07T08:42:45.664Z,3.58
2022-12-07T08:45:15.424Z,3.64
2022-12-07T08:47:47.328Z,3.59
2022-12-07T08:50:14.807Z,3.62
2022-12-07T08:52:42.796Z,3.65
2022-12-07T08:55:11.817Z,3.73
2022-12-07T08:57:39.250Z,3.76
2022-12-07T09:00:07.227Z,3.79
2022-12-07T09:02:34.471Z,3.74
2022-12-07T09:05:01.682Z,3.77
2022-12-07T09:07:29.107Z,3.74
2022-12-07T09:09:56.974Z,3.74
2022-12-07T09:12:24.325Z,3.81
2022-12-07T09:14:51.560Z,3.72
2022-12-07T09:17:18.918Z,3.56
2022-12-07T09:20:02.697Z,3.45
2022-12-07T09:22:31.442Z,3.52
2022-12-07T09:24:59.497Z,3.53
2022-12-07T09:27:27.071Z,3.57
2022-12-07T09:29:54.348Z,3.63
2022-12-07T09:32:25.370Z,3.70
2022-12-07T09:34:52.772Z,3.88
2022-12-07T09:37:20.057Z,3.86
2022-12-07T09:39:50.336Z,3.77
2022-12-07T09:42:26.670Z,3.83
2022-12-07T09:44:53.999Z,3.66
2022-12-07T09:47:21.302Z,3.76
2022-12-07T09:49:48.593Z,3.73
2022-12-07T09:52:26.774Z,3.82
2022-12-07T09:54:54.327Z,3.83
2022-12-07T09:57:35.606Z,3.70
2022-12-07T10:00:05.583Z,3.75
2022-12-07T10:02:38.784Z,3.80
2022-12-07T10:05:08.413Z,3.95
2022-12-07T10:07:35.851Z,3.95
2022-12-07T10:10:10.070Z,4.00
2022-12-07T10:13:01.081Z,4.05
2022-12-07T10:16:00.925Z,4.05
2022-12-07T10:18:42.138Z,3.99
2022-12-07T10:21:18.032Z,3.95
2022-12-07T10:24:06.746Z,3.96
2022-12-07T10:26:55.774Z,4.01
2022-12-07T10:29:24.257Z,3.88
2022-12-07T10:32:23.526Z,4.03
2022-12-07T10:35:01.785Z,4.05
2022-12-07T10:37:29.097Z,4.20
2022-12-07T10:39:59.086Z,4.42
2022-12-07T10:42:28.313Z,4.36
2022-12-07T10:45:18.406Z,4.54
2022-12-07T10:48:10.973Z,4.53
2022-12-07T10:51:13.203Z,4.50
2022-12-07T10:53:54.153Z,4.55
2022-12-07T10:56:33.429Z,4.51
2022-12-07T10:59:29.565Z,4.41
2022-12-07T11:02:14.230Z,4.39
2022-12-07T11:05:02.545Z,4.40
2022-12-07T11:07:39.327Z,4.41
2022-12-07T11:10:20.152Z,4.38
2022-12-07T11:12:59.626Z,4.22
2022-12-07T11:15:30.944Z,4.25
2022-12-07T11:18:23.362Z,4.22
2022-12-07T11:21:08.852Z,4.15
2022-12-07T11:23:47.595Z,4.19
2022-12-07T11:26:44.380Z,4.26
2022-12-07T11:29:40.583Z,4.19
2022-12-07T11:32:29.654Z,4.25
2022-12-07T11:35:05.879Z,4.29
2022-12-07T11:40:29.128Z,4.34
2022-12-07T11:43:14.463Z,4.50
2022-12-07T11:45:47.757Z,4.54
2022-12-07T11:48:41.618Z,4.53
2022-12-07T11:51:12.394Z,4.54
2022-12-07T11:53:41.167Z,4.60
2022-12-07T11:56:18.457Z,4.53
2022-12-07T11:58:51.496Z,4.55
2022-12-07T12:01:52.429Z,4.64
2022-12-07T12:04:31.463Z,4.60
2022-12-07T12:06:58.903Z,4.72
2022-12-07T12:09:38.727Z,4.69
2022-12-07T12:15:33.614Z,4.70
2022-12-07T12:18:34.860Z,4.78
2022-12-07T12:21:05.608Z,4.75
2022-12-07T12:24:00.863Z,4.72
2022-12-07T12:26:31.591Z,4.76
2022-12-07T12:29:01.626Z,4.64
2022-12-07T12:31:28.814Z,4.70
2022-12-07T12:33:58.219Z,4.75
2022-12-07T12:36:43.960Z,4.49
2022-12-07T12:39:20.239Z,4.51
2022-12-07T12:41:50.403Z,4.59
2022-12-07T12:44:20.700Z,4.60
2022-12-07T12:47:02.979Z,4.73
2022-12-07T12:49:30.073Z,4.77
2022-12-07T12:52:43.444Z,4.81
2022-12-07T12:55:21.870Z,4.79
2022-12-07T12:58:29.870Z,4.75
2022-12-07T13:01:31.419Z,4.60
2022-12-07T13:03:59.391Z,4.65
2022-12-07T13:06:27.247Z,4.56
2022-12-07T13:08:57.037Z,4.61
2022-12-07T13:11:34.321Z,4.54
2022-12-07T13:14:41.975Z,4.53
2022-12-07T13:17:33.165Z,4.54
2022-12-07T13:20:12.824Z,4.47
2022-12-07T13:22:47.947Z,4.34
2022-12-07T13:25:30.297Z,4.35
2022-12-07T13:28:16.704Z,4.32
2022-12-07T13:30:55.388Z,4.30
2022-12-07T13:33:22.719Z,4.24
2022-12-07T13:35:50.040Z,4.17
2022-12-07T13:38:24.160Z,4.16
2022-12-07T13:41:17.505Z,4.18
2022-12-07T13:43:54.908Z,4.17
2022-12-07T13:46:32.360Z,4.17
2022-12-07T13:48:59.757Z,4.17
2022-12-07T13:51:29.020Z,4.09
2022-12-07T13:54:00.747Z,4.02
2022-12-07T13:56:33.813Z,4.01
2022-12-07T13:59:01.356Z,4.02
2022-12-07T14:01:29.227Z,3.96
2022-12-07T14:03:56.471Z,4.04
2022-12-07T14:06:29.814Z,4.01
2022-12-07T14:09:22.104Z,4.01
2022-12-07T14:11:51.475Z,4.02
2022-12-07T14:14:23.620Z,4.00
2022-12-07T14:17:09.859Z,3.84
2022-12-07T14:19:58.074Z,3.80
2022-12-07T14:22:39.020Z,3.81
2022-12-07T14:25:17.408Z,3.85
2022-12-07T14:27:57.415Z,3.82
2022-12-07T14:30:26.665Z,3.69
2022-12-07T14:33:05.969Z,3.62
2022-12-07T14:35:33.216Z,3.66
2022-12-07T14:38:00.674Z,3.65
2022-12-07T14:40:29.558Z,3.53
2022-12-07T14:43:01.581Z,3.43
2022-12-07T14:45:28.784Z,3.38
2022-12-07T14:53:38.119Z,3.16
2022-12-07T14:56:08.591Z,3.06
2022-12-07T14:58:35.949Z,3.10
2022-12-07T15:01:03.263Z,2.99
2022-12-07T15:03:30.939Z,2.92
2022-12-07T15:05:58.266Z,2.88
2022-12-07T15:08:25.558Z,2.81
2022-12-07T15:10:52.822Z,2.87
2022-12-07T15:13:38.670Z,2.84
2022-12-07T15:16:09.198Z,2.80
2022-12-07T15:18:36.421Z,2.65
2022-12-07T15:21:03.758Z,2.67
2022-12-07T15:23:32.128Z,2.65
2022-12-07T15:25:59.346Z,2.55
2022-12-07T15:28:26.561Z,2.49
2022-12-07T15:30:53.823Z,2.47
2022-12-07T15:33:21.004Z,2.46
2022-12-07T15:35:48.336Z,2.42
2022-12-07T15:38:15.530Z,2.34
2022-12-07T15:40:42.785Z,2.30
2022-12-07T15:43:31.216Z,2.27
2022-12-07T15:45:58.625Z,2.22
2022-12-07T15:48:28.530Z,2.23
2022-12-07T15:51:07.128Z,2.20
2022-12-07T15:53:34.907Z,2.16
2022-12-07T15:56:02.166Z,2.15
2022-12-07T15:58:29.387Z,2.08
2022-12-07T16:00:56.638Z,2.15
2022-12-07T16:03:23.844Z,2.15
2022-12-07T16:05:51.878Z,2.07
2022-12-07T16:08:19.236Z,2.12
2022-12-07T16:10:46.600Z,2.08
2022-12-07T16:13:17.073Z,2.06
2022-12-07T16:15:44.608Z,2.05
2022-12-07T16:18:12.026Z,2.10
2022-12-07T16:20:39.275Z,2.07
2022-12-07T16:23:08.206Z,2.08
2022-12-07T16:25:35.460Z,2.08
2022-12-07T16:28:02.701Z,2.03
2022-12-07T16:30:29.910Z,2.05
2022-12-07T16:33:02.280Z,1.99
2022-12-07T16:35:29.914Z,1.99
2022-12-07T16:37:57.158Z,1.92
2022-12-07T16:40:24.401Z,1.93
2022-12-07T16:42:51.746Z,1.89
2022-12-07T16:45:21.033Z,1.79
2022-12-07T16:47:48.487Z,1.84
2022-12-07T16:50:15.681Z,1.79
2022-12-07T16:52:43.087Z,1.82
2022-12-07T16:55:10.432Z,1.85
2022-12-07T16:57:38.859Z,1.80
2022-12-07T17:00:06.854Z,1.82
2022-12-07T17:02:34.620Z,1.78
2022-12-07T17:05:02.488Z,1.81
2022-12-07T17:07:29.938Z,1.69
2022-12-07T17:09:57.104Z,1.70
2022-12-07T17:12:30.127Z,1.76
2022-12-07T17:15:15.856Z,1.74
2022-12-07T17:17:43.490Z,1.71
2022-12-07T17:20:15.177Z,1.63
2022-12-07T17:22:45.279Z,1.68
2022-12-07T17:25:12.523Z,1.75
2022-12-07T17:27:39.767Z,1.67
2022-12-07T17:30:07.716Z,1.71
2022-12-07T17:32:34.966Z,1.68
2022-12-07T17:35:02.456Z,1.67
2022-12-07T17:37:29.868Z,1.70
2022-12-07T17:39:58.229Z,1.64
2022-12-07T17:42:40.111Z,1.72
2022-12-07T17:45:11.377Z,1.66
2022-12-07T17:47:39.080Z,1.62
2022-12-07T17:50:16.543Z,1.51
2022-12-07T17:53:02.294Z,1.50
2022-12-07T17:55:29.692Z,1.41
2022-12-07T17:57:56.911Z,1.41
2022-12-07T18:00:24.238Z,1.32
2022-12-07T18:02:51.482Z,1.36
2022-12-07T18:05:18.745Z,1.34
2022-12-07T18:07:46.005Z,1.27
2022-12-07T18:10:13.348Z,1.19
2022-12-07T18:12:40.752Z,1.11
2022-12-07T18:15:08.238Z,1.14
2022-12-07T18:17:35.425Z,1.11
2022-12-07T18:20:02.745Z,1.13
2022-12-07T18:22:29.959Z,1.09
2022-12-07T18:24:57.170Z,1.08
2022-12-07T18:27:24.403Z,1.06
2022-12-07T18:29:51.617Z,1.04
2022-12-07T18:32:18.842Z,1.03
2022-12-07T18:34:46.033Z,0.98
2022-12-07T18:37:13.209Z,1.04
2022-12-07T18:39:40.690Z,1.00
2022-12-07T18:42:08.347Z,0.98
2022-12-07T18:44:35.618Z,0.95
2022-12-07T18:47:03.027Z,0.95
2022-12-07T18:49:30.287Z,0.96
2022-12-07T18:51:57.534Z,0.89
2022-12-07T18:54:25.268Z,0.90
2022-12-07T18:56:52.554Z,0.88
2022-12-07T18:59:38.268Z,0.93
2022-12-07T19:02:05.514Z,0.86
2022-12-07T19:04:32.902Z,0.88
2022-12-07T19:07:00.146Z,0.87
2022-12-07T19:09:27.622Z,0.88
2022-12-07T19:11:56.419Z,0.83
2022-12-07T19:14:23.648Z,0.87
2022-12-07T19:16:53.178Z,0.99
2022-12-07T19:19:22.645Z,0.96
2022-12-07T19:21:50.103Z,0.95
2022-12-07T19:24:23.111Z,0.89
2022-12-07T19:26:51.727Z,0.86
2022-12-07T19:29:22.237Z,0.84
2022-12-07T19:31:49.512Z,0.84
2022-12-07T19:34:19.102Z,0.79
2022-12-07T19:36:47.040Z,0.84
2022-12-07T19:39:15.509Z,0.82
2022-12-07T19:41:44.455Z,0.80
2022-12-07T19:44:17.489Z,0.82
2022-12-07T19:46:46.782Z,0.88
2022-12-07T19:49:16.071Z,0.89
2022-12-07T19:51:44.510Z,0.92
2022-12-07T19:54:14.598Z,0.90
2022-12-07T19:56:43.127Z,0.88
2022-12-07T19:59:11.151Z,0.81
2022-12-07T20:01:40.716Z,0.86
2022-12-07T20:04:17.172Z,0.84
2022-12-07T20:06:45.033Z,0.79
2022-12-07T20:09:12.704Z,0.80
2022-12-07T20:12:00.829Z,0.79
2022-12-07T20:14:31.725Z,0.70
2022-12-07T20:16:59.675Z,0.68
2022-12-07T20:19:27.353Z,0.66
2022-12-07T20:21:54.655Z,0.65
2022-12-07T20:24:23.710Z,0.65
2022-12-07T20:26:52.291Z,0.62
2022-12-07T20:29:22.715Z,0.56
2022-12-07T20:31:50.401Z,0.58
2022-12-07T20:34:17.630Z,0.55
2022-12-07T20:36:45.371Z,0.48
2022-12-07T20:39:12.841Z,0.49
2022-12-07T20:41:58.657Z,0.43
2022-12-07T20:44:26.816Z,0.36
2022-12-07T20:46:54.199Z,0.37
2022-12-07T20:49:24.729Z,0.32
2022-12-07T20:51:52.107Z,0.33
2022-12-07T20:54:20.052Z,0.30
2022-12-07T20:56:47.449Z,0.26
2022-12-07T20:59:15.772Z,0.23
2022-12-07T21:01:43.758Z,0.29
2022-12-07T21:04:12.775Z,0.23
2022-12-07T21:06:40.394Z,0.26
2022-12-07T21:09:07.928Z,0.29
2022-12-07T21:11:35.731Z,0.28
2022-12-07T21:14:02.988Z,0.23
2022-12-07T21:16:31.443Z,0.17
2022-12-07T21:19:02.701Z,0.16
2022-12-07T21:21:31.875Z,0.18
2022-12-07T21:24:02.504Z,0.10
2022-12-07T21:26:33.645Z,0.05
2022-12-07T21:29:01.615Z,0.04
2022-12-07T21:31:29.006Z,0.02
2022-12-07T21:33:56.417Z,-0.05
2022-12-07T21:36:26.044Z,-0.08
2022-12-07T21:38:53.734Z,-0.08
2022-12-07T21:41:30.710Z,-0.13
2022-12-07T21:43:58.439Z,-0.15
2022-12-07T21:46:33.276Z,-0.21
2022-12-07T21:49:10.478Z,-0.21
2022-12-07T21:51:37.779Z,-0.22
2022-12-07T21:54:06.120Z,-0.26
2022-12-07T21:56:41.357Z,-0.26
2022-12-07T21:59:17.836Z,-0.25
2022-12-07T22:01:47.448Z,-0.29
2022-12-07T22:04:20.522Z,-0.29
2022-12-07T22:06:48.000Z,-0.29
2022-12-07T22:09:15.698Z,-0.30
2022-12-07T22:11:42.992Z,-0.31
2022-12-07T22:14:29.512Z,-0.33
2022-12-07T22:16:57.716Z,-0.34
2022-12-07T22:19:25.062Z,-0.29
2022-12-07T22:21:52.300Z,-0.26
2022-12-07T22:24:19.576Z,-0.20
2022-12-07T22:26:47.113Z,-0.15
2022-12-07T22:29:14.307Z,-0.09
2022-12-07T22:31:41.789Z,-0.07
2022-12-07T22:34:15.549Z,-0.03
2022-12-07T22:36:42.880Z,-0.02
2022-12-07T22:39:10.732Z,-0.02
2022-12-07T22:41:38.305Z,-0.04
2022-12-07T22:44:07.755Z,-0.07
2022-12-07T22:46:35.888Z,-0.02
2022-12-07T22:49:03.946Z,-0.02
2022-12-07T22:51:33.785Z,0.01
2022-12-07T22:54:02.467Z,0.02
2022-12-07T22:56:30.860Z,0.01
2022-12-07T22:58:58.135Z,0.04
2022-12-07T23:01:25.425Z,0.04
2022-12-07T23:03:52.920Z,0.06
2022-12-07T23:06:23.006Z,0.10
2022-12-07T23:08:50.590Z,0.11
2022-12-07T23:11:39.340Z,0.13
2022-12-07T23:14:12.518Z,0.10
2022-12-07T23:16:40.224Z,0.04
2022-12-07T23:19:07.645Z,-0.01
2022-12-07T23:21:35.015Z,0.01
2022-12-07T23:24:02.407Z,0.02
2022-12-07T23:26:29.807Z,-0.01
2022-12-07T23:28:58.288Z,0.04
2022-12-07T23:31:25.938Z,0.12
2022-12-07T23:33:53.226Z,0.21
2022-12-07T23:36:25.700Z,0.32
2022-12-07T23:38:54.518Z,0.39
2022-12-07T23:41:29.572Z,0.44
2022-12-07T23:43:58.317Z,0.50
2022-12-07T23:46:27.881Z,0.55
2022-12-07T23:48:56.671Z,0.53
2022-12-07T23:51:23.931Z,0.59
2022-12-07T23:53:51.998Z,0.63
2022-12-07T23:56:24.441Z,0.66
2022-12-07T23:58:52.680Z,0.69
